createdAt,value
2022-09-28T00:01:19.995Z,9.50
2022-09-28T00:03:50.401Z,8.32
2022-09-28T00:06:21.858Z,5.18
2022-09-28T00:08:50.022Z,3.75
2022-09-28T00:11:19.957Z,7.72
2022-09-28T00:13:51.363Z,7.90
2022-09-28T00:16:23.054Z,8.60
2022-09-28T00:18:51.859Z,6.05
2022-09-28T00:21:23.056Z,6.72
2022-09-28T00:23:55.874Z,5.90
2022-09-28T00:26:24.492Z,4.75
2022-09-28T00:28:54.318Z,8.23
2022-09-28T00:31:23.001Z,7.53
2022-09-28T00:33:52.262Z,4.90
2022-09-28T00:36:20.919Z,14.98
2022-09-28T00:38:49.262Z,4.18
2022-09-28T00:41:17.620Z,6.13
2022-09-28T00:43:45.755Z,7.05
2022-09-28T00:46:22.548Z,4.38
2022-09-28T00:49:01.579Z,6.53
2022-09-28T00:51:31.561Z,8.00
2022-09-28T00:54:02.464Z,5.07
2022-09-28T00:56:34.134Z,6.43
2022-09-28T00:59:02.794Z,9.40
2022-09-28T01:01:31.140Z,8.38
2022-09-28T01:04:00.279Z,8.80
2022-09-28T01:06:31.742Z,6.97
2022-09-28T01:09:04.986Z,7.95
2022-09-28T01:11:35.773Z,5.63
2022-09-28T01:14:09.710Z,8.73
2022-09-28T01:16:56.100Z,8.70
2022-09-28T01:20:06.943Z,10.57
2022-09-28T01:23:06.962Z,9.15
2022-09-28T01:25:41.786Z,10.30
2022-09-28T01:28:15.080Z,8.80
2022-09-28T01:31:09.372Z,7.75
2022-09-28T01:33:51.653Z,7.10
2022-09-28T01:36:27.460Z,12.98
2022-09-28T01:39:05.030Z,6.97
2022-09-28T01:41:35.548Z,6.97
2022-09-28T01:44:08.750Z,6.63
2022-09-28T01:46:47.235Z,10.20
2022-09-28T01:49:24.595Z,8.93
2022-09-28T01:52:09.633Z,8.88
2022-09-28T01:54:56.279Z,8.23
2022-09-28T01:58:06.453Z,9.90
2022-09-28T02:00:36.676Z,12.05
2022-09-28T02:03:37.744Z,10.20
2022-09-28T02:06:34.403Z,13.25
2022-09-28T02:09:15.012Z,8.82
2022-09-28T02:11:53.361Z,9.32
2022-09-28T02:14:22.287Z,11.38
2022-09-28T02:16:54.211Z,15.82
2022-09-28T02:19:30.823Z,10.18
2022-09-28T02:22:05.125Z,9.40
2022-09-28T02:24:47.033Z,6.22
2022-09-28T02:27:30.017Z,9.60
2022-09-28T02:29:58.276Z,11.32
2022-09-28T02:32:29.071Z,11.60
2022-09-28T02:34:57.548Z,9.00
2022-09-28T02:37:27.163Z,7.50
2022-09-28T02:39:55.484Z,5.93
2022-09-28T02:42:23.728Z,9.45
2022-09-28T02:44:57.839Z,8.10
2022-09-28T02:47:54.369Z,12.50
2022-09-28T02:50:49.642Z,12.40
2022-09-28T02:53:40.621Z,13.50
2022-09-28T02:56:39.711Z,11.10
2022-09-28T02:59:20.021Z,16.30
2022-09-28T03:02:03.318Z,14.35
2022-09-28T03:04:42.302Z,8.10
2022-09-28T03:07:51.022Z,12.50
2022-09-28T03:10:36.775Z,14.30
2022-09-28T03:13:06.408Z,14.80
2022-09-28T03:15:37.051Z,12.60
2022-09-28T03:18:05.508Z,11.25
2022-09-28T03:20:34.714Z,14.95
2022-09-28T03:23:25.520Z,8.20
2022-09-28T03:25:53.963Z,10.13
2022-09-28T03:28:22.603Z,11.50
2022-09-28T03:30:51.350Z,13.98
2022-09-28T03:33:21.396Z,13.82
2022-09-28T03:35:51.183Z,16.33
2022-09-28T03:38:20.054Z,11.38
2022-09-28T03:40:56.631Z,12.15
2022-09-28T03:43:26.510Z,15.98
2022-09-28T03:46:02.914Z,13.27
2022-09-28T03:48:36.198Z,10.55
2022-09-28T03:51:06.742Z,12.23
2022-09-28T03:53:35.716Z,4.65
2022-09-28T03:56:09.616Z,13.65
2022-09-28T03:58:38.487Z,13.32
2022-09-28T04:01:14.102Z,11.68
2022-09-28T04:03:46.901Z,11.80
2022-09-28T04:06:15.831Z,11.88
2022-09-28T04:08:44.265Z,11.13
2022-09-28T04:11:12.698Z,12.05
2022-09-28T04:13:41.407Z,12.98
2022-09-28T04:16:12.367Z,15.00
2022-09-28T04:18:44.575Z,15.38
2022-09-28T04:21:34.419Z,10.13
2022-09-28T04:24:10.022Z,13.20
2022-09-28T04:26:38.461Z,9.10
2022-09-28T04:29:07.075Z,7.63
2022-09-28T04:31:49.916Z,8.15
2022-09-28T04:34:22.766Z,7.47
2022-09-28T04:36:51.305Z,14.40
2022-09-28T04:39:20.279Z,9.27
2022-09-28T04:41:54.506Z,13.50
2022-09-28T04:44:22.745Z,10.80
2022-09-28T04:46:56.818Z,11.00
2022-09-28T04:49:30.821Z,11.93
2022-09-28T04:52:18.366Z,8.38
2022-09-28T04:54:49.884Z,9.77
2022-09-28T04:57:18.390Z,12.85
2022-09-28T04:59:46.423Z,14.40
2022-09-28T05:02:14.607Z,9.40
2022-09-28T05:05:14.749Z,10.18
2022-09-28T05:08:09.090Z,19.23
2022-09-28T05:10:37.501Z,12.45
2022-09-28T05:13:06.122Z,11.30
2022-09-28T05:15:38.731Z,14.13
2022-09-28T05:18:07.856Z,13.38
2022-09-28T05:20:58.579Z,19.00
2022-09-28T05:23:27.633Z,19.85
2022-09-28T05:26:02.922Z,25.70
2022-09-28T05:28:33.486Z,18.67
2022-09-28T05:31:20.233Z,13.85
2022-09-28T05:34:06.619Z,7.13
2022-09-28T05:36:35.193Z,5.13
2022-09-28T05:39:03.383Z,8.95
2022-09-28T05:41:32.137Z,6.03
2022-09-28T05:44:01.636Z,7.85
2022-09-28T05:46:31.311Z,5.43
2022-09-28T05:49:02.976Z,7.93
2022-09-28T05:51:31.544Z,9.13
2022-09-28T05:54:04.685Z,8.88
2022-09-28T05:56:35.510Z,14.10
2022-09-28T05:59:06.546Z,9.15
2022-09-28T06:01:34.925Z,13.48
2022-09-28T06:04:08.847Z,17.60
2022-09-28T06:06:38.054Z,17.90
2022-09-28T06:09:06.168Z,16.33
2022-09-28T06:11:47.113Z,14.93
2022-09-28T06:14:28.602Z,10.93
2022-09-28T06:16:57.085Z,11.27
2022-09-28T06:19:25.464Z,12.88
2022-09-28T06:22:11.858Z,12.15
2022-09-28T06:24:47.385Z,13.10
2022-09-28T06:27:15.721Z,17.92
2022-09-28T06:29:43.771Z,21.17
2022-09-28T06:32:13.333Z,18.13
2022-09-28T06:34:42.327Z,12.98
2022-09-28T06:37:10.656Z,13.73
2022-09-28T06:39:38.808Z,17.30
2022-09-28T06:42:07.051Z,16.77
2022-09-28T06:44:53.560Z,16.13
2022-09-28T06:47:38.509Z,13.05
2022-09-28T06:50:30.150Z,15.18
2022-09-28T06:53:28.425Z,15.05
2022-09-28T06:56:16.875Z,18.90
2022-09-28T06:58:46.051Z,16.45
2022-09-28T07:01:14.610Z,13.20
2022-09-28T07:03:59.440Z,15.02
2022-09-28T07:06:49.264Z,16.20
2022-09-28T07:09:55.229Z,17.92
2022-09-28T07:15:27.113Z,14.20
2022-09-28T07:18:05.972Z,14.93
2022-09-28T07:20:44.963Z,14.68
2022-09-28T07:23:19.801Z,12.93
2022-09-28T07:26:09.041Z,15.90
2022-09-28T07:28:56.144Z,15.73
2022-09-28T07:31:43.426Z,13.55
2022-09-28T07:34:34.472Z,13.73
2022-09-28T07:37:12.271Z,20.48
2022-09-28T07:39:41.536Z,18.33
2022-09-28T07:42:09.938Z,26.73
2022-09-28T07:44:38.094Z,24.20
2022-09-28T07:47:06.341Z,22.65
2022-09-28T07:49:57.680Z,19.83
2022-09-28T07:52:45.978Z,19.75
2022-09-28T07:55:40.129Z,15.25
2022-09-28T07:58:34.351Z,17.02
2022-09-28T08:01:31.622Z,16.90
2022-09-28T08:04:01.417Z,19.40
2022-09-28T08:06:31.289Z,21.17
2022-09-28T08:08:59.724Z,9.23
2022-09-28T08:11:47.807Z,16.17
2022-09-28T08:14:25.369Z,14.10
2022-09-28T08:17:05.180Z,11.70
2022-09-28T08:19:41.788Z,15.68
2022-09-28T08:22:10.080Z,14.68
2022-09-28T08:24:38.590Z,10.98
2022-09-28T08:27:07.312Z,11.00
2022-09-28T08:29:36.447Z,9.73
2022-09-28T08:32:36.792Z,12.25
2022-09-28T08:35:23.321Z,16.35
2022-09-28T08:38:09.147Z,20.42
2022-09-28T08:41:08.935Z,20.73
2022-09-28T08:44:17.459Z,15.95
2022-09-28T08:47:34.454Z,15.55
2022-09-28T08:50:22.373Z,17.95
2022-09-28T08:53:23.996Z,17.23
2022-09-28T08:57:02.074Z,18.85
2022-09-28T08:59:59.166Z,14.05
2022-09-28T09:02:37.904Z,14.50
2022-09-28T09:05:24.048Z,13.20
2022-09-28T09:08:13.906Z,12.15
2022-09-28T09:10:53.153Z,14.20
2022-09-28T09:14:03.066Z,12.75
2022-09-28T09:16:47.327Z,8.65
2022-09-28T09:20:23.166Z,11.95
2022-09-28T09:23:06.779Z,11.55
2022-09-28T09:25:43.351Z,11.13
2022-09-28T09:28:37.724Z,12.82
2022-09-28T09:31:36.194Z,12.20
2022-09-28T09:34:06.797Z,13.40
2022-09-28T09:37:11.239Z,17.52
2022-09-28T09:39:54.752Z,11.73
2022-09-28T09:43:02.756Z,11.02
2022-09-28T09:46:29.431Z,12.98
2022-09-28T09:49:25.198Z,8.52
2022-09-28T09:52:24.889Z,6.38
2022-09-28T09:54:57.671Z,10.02
2022-09-28T09:57:52.282Z,9.13
2022-09-28T10:00:36.799Z,11.18
2022-09-28T10:03:20.810Z,6.28
2022-09-28T10:05:56.760Z,8.98
2022-09-28T10:08:27.576Z,6.03
2022-09-28T10:11:16.127Z,11.50
2022-09-28T10:13:49.377Z,11.35
2022-09-28T10:16:40.727Z,12.18
2022-09-28T10:19:17.508Z,11.13
2022-09-28T10:22:07.518Z,9.18
2022-09-28T10:24:41.610Z,16.00
2022-09-28T10:27:19.256Z,14.23
2022-09-28T10:29:54.514Z,11.07
2022-09-28T10:32:25.954Z,7.55
2022-09-28T10:35:14.886Z,10.98
2022-09-28T10:38:01.906Z,10.10
2022-09-28T10:41:00.367Z,9.25
2022-09-28T10:43:58.256Z,9.45
2022-09-28T10:46:26.882Z,10.52
2022-09-28T10:49:03.563Z,10.63
2022-09-28T10:51:44.527Z,9.50
2022-09-28T10:54:26.022Z,6.97
2022-09-28T10:56:55.971Z,10.20
2022-09-28T10:59:46.872Z,6.07
2022-09-28T11:02:41.855Z,11.25
2022-09-28T11:05:25.965Z,7.88
2022-09-28T11:08:00.941Z,12.68
2022-09-28T11:10:36.886Z,7.65
2022-09-28T11:13:15.650Z,12.38
2022-09-28T11:15:51.571Z,8.23
2022-09-28T11:21:44.621Z,12.30
2022-09-28T11:24:19.140Z,8.57
2022-09-28T11:26:56.683Z,7.03
2022-09-28T11:29:43.929Z,8.35
2022-09-28T11:32:18.167Z,7.63
2022-09-28T11:35:07.495Z,7.45
2022-09-28T11:37:45.344Z,6.30
2022-09-28T11:40:34.792Z,11.55
2022-09-28T11:43:03.107Z,10.63
2022-09-28T11:45:31.599Z,9.88
2022-09-28T11:48:09.947Z,4.32
2022-09-28T11:50:50.671Z,5.38
2022-09-28T11:53:39.777Z,6.72
2022-09-28T11:56:28.867Z,8.25
2022-09-28T11:59:13.177Z,7.03
2022-09-28T12:02:21.255Z,10.60
2022-09-28T12:05:03.605Z,8.25
2022-09-28T12:07:41.033Z,5.60
2022-09-28T12:10:21.295Z,4.55
2022-09-28T12:13:22.671Z,7.35
2022-09-28T12:19:46.983Z,5.90
2022-09-28T12:22:40.099Z,9.95
2022-09-28T12:25:16.805Z,5.55
2022-09-28T12:27:53.908Z,11.25
2022-09-28T12:30:24.187Z,8.43
2022-09-28T12:33:06.288Z,5.18
2022-09-28T12:36:02.021Z,5.82
2022-09-28T12:39:18.076Z,5.68
2022-09-28T12:42:13.415Z,5.13
2022-09-28T12:45:06.733Z,4.53
2022-09-28T12:47:47.376Z,2.90
2022-09-28T12:50:42.706Z,2.83
2022-09-28T12:53:38.201Z,3.90
2022-09-28T12:56:16.824Z,7.13
2022-09-28T12:58:56.608Z,7.68
2022-09-28T13:01:58.997Z,4.22
2022-09-28T13:04:27.265Z,4.07
2022-09-28T13:07:14.174Z,4.80
2022-09-28T13:09:54.612Z,2.38
2022-09-28T13:12:31.177Z,2.60
2022-09-28T13:15:17.412Z,2.35
2022-09-28T13:17:54.689Z,5.75
2022-09-28T13:20:44.659Z,4.80
2022-09-28T13:23:24.410Z,7.20
2022-09-28T13:26:22.025Z,2.60
2022-09-28T13:28:53.094Z,5.05
2022-09-28T13:31:29.148Z,6.15
2022-09-28T13:34:04.188Z,5.03
2022-09-28T13:36:32.462Z,8.13
2022-09-28T13:39:01.416Z,10.43
2022-09-28T13:41:34.215Z,8.25
2022-09-28T13:44:11.951Z,6.70
2022-09-28T13:46:51.965Z,12.18
2022-09-28T13:49:41.806Z,6.50
2022-09-28T13:52:55.132Z,10.98
2022-09-28T13:55:33.629Z,8.23
2022-09-28T13:58:20.486Z,9.20
2022-09-28T14:01:00.409Z,4.80
2022-09-28T14:03:54.516Z,6.40
2022-09-28T14:06:25.818Z,13.70
2022-09-28T14:09:18.723Z,9.90
2022-09-28T14:12:01.852Z,4.45
2022-09-28T14:14:48.634Z,7.68
2022-09-28T14:17:22.913Z,4.95
2022-09-28T14:20:00.858Z,7.45
2022-09-28T14:22:55.386Z,7.53
2022-09-28T14:25:43.897Z,4.43
2022-09-28T14:28:41.985Z,7.15
2022-09-28T14:31:18.052Z,4.63
2022-09-28T14:33:59.058Z,3.05
2022-09-28T14:36:36.540Z,6.72
2022-09-28T14:39:05.063Z,5.18
2022-09-28T14:41:38.853Z,12.80
2022-09-28T14:44:12.241Z,5.10
2022-09-28T14:46:48.337Z,11.70
2022-09-28T14:49:19.697Z,11.18
2022-09-28T14:51:57.127Z,6.07
2022-09-28T14:54:38.210Z,4.97
2022-09-28T14:57:31.713Z,7.78
2022-09-28T15:00:01.229Z,6.97
2022-09-28T15:02:33.484Z,6.85
2022-09-28T15:05:07.586Z,2.88
2022-09-28T15:07:53.420Z,5.63
2022-09-28T15:10:37.266Z,4.55
2022-09-28T15:13:27.185Z,5.13
2022-09-28T15:16:17.213Z,4.35
2022-09-28T15:19:12.954Z,3.85
2022-09-28T15:21:43.133Z,7.47
2022-09-28T15:24:29.725Z,7.82
2022-09-28T15:26:58.442Z,9.52
2022-09-28T15:29:27.269Z,5.47
2022-09-28T15:31:55.631Z,8.88
2022-09-28T15:34:32.047Z,3.70
2022-09-28T15:37:00.655Z,8.48
2022-09-28T15:39:33.409Z,14.63
2022-09-28T15:42:01.890Z,8.88
2022-09-28T15:44:33.345Z,13.70
2022-09-28T15:47:28.392Z,5.82
2022-09-28T15:50:20.125Z,14.35
2022-09-28T15:52:57.857Z,9.00
2022-09-28T15:55:36.510Z,5.25
2022-09-28T15:58:21.901Z,5.78
2022-09-28T16:00:52.366Z,11.93
2022-09-28T16:03:29.602Z,4.68
2022-09-28T16:06:10.979Z,5.03
2022-09-28T16:08:44.791Z,6.38
2022-09-28T16:11:24.820Z,8.85
2022-09-28T16:14:05.880Z,5.40
2022-09-28T16:16:39.526Z,6.10
2022-09-28T16:19:36.687Z,9.55
2022-09-28T16:22:08.417Z,12.70
2022-09-28T16:27:28.665Z,9.07
2022-09-28T16:30:23.104Z,9.82
2022-09-28T16:33:24.332Z,7.13
2022-09-28T16:35:53.260Z,11.90
2022-09-28T16:38:21.619Z,7.32
2022-09-28T16:40:52.675Z,10.57
2022-09-28T16:43:32.433Z,5.35
2022-09-28T16:46:09.536Z,10.20
2022-09-28T16:48:48.786Z,6.47
2022-09-28T16:51:21.306Z,6.60
2022-09-28T16:53:49.662Z,8.55
2022-09-28T16:56:17.935Z,7.53
2022-09-28T16:58:46.087Z,7.95
2022-09-28T17:01:14.303Z,7.57
2022-09-28T17:03:42.571Z,10.40
2022-09-28T17:06:13.543Z,13.10
2022-09-28T17:08:41.739Z,7.28
2022-09-28T17:11:17.958Z,8.38
2022-09-28T17:13:48.709Z,9.55
2022-09-28T17:16:49.353Z,11.55
2022-09-28T17:19:19.232Z,16.33
2022-09-28T17:21:48.057Z,8.65
2022-09-28T17:24:16.357Z,10.98
2022-09-28T17:26:46.262Z,18.83
2022-09-28T17:29:15.685Z,10.27
2022-09-28T17:31:45.407Z,6.45
2022-09-28T17:34:15.315Z,14.90
2022-09-28T17:36:44.912Z,14.60
2022-09-28T17:42:04.015Z,10.38
2022-09-28T17:44:32.382Z,11.65
2022-09-28T17:47:00.604Z,14.35
2022-09-28T17:49:28.635Z,18.00
2022-09-28T17:51:56.973Z,15.48
2022-09-28T17:54:25.350Z,18.63
2022-09-28T17:56:53.881Z,30.25
2022-09-28T17:59:22.104Z,17.70
2022-09-28T18:01:50.299Z,20.92
2022-09-28T18:04:47.199Z,20.60
2022-09-28T18:07:06.756Z,17.10
2022-09-28T18:09:34.999Z,14.73
2022-09-28T18:12:05.730Z,13.23
2022-09-28T18:14:34.021Z,14.70
2022-09-28T18:17:02.147Z,18.52
2022-09-28T18:19:32.367Z,13.90
2022-09-28T18:22:01.007Z,8.15
2022-09-28T18:24:29.292Z,11.52
2022-09-28T18:26:57.622Z,11.60
2022-09-28T18:29:26.709Z,18.45
2022-09-28T18:31:56.219Z,30.75
2022-09-28T18:34:24.643Z,11.27
2022-09-28T18:36:52.809Z,14.10
2022-09-28T18:39:21.057Z,10.80
2022-09-28T18:41:49.172Z,11.75
2022-09-28T18:44:17.328Z,18.25
2022-09-28T18:46:45.625Z,21.23
2022-09-28T18:49:13.778Z,22.63
2022-09-28T18:51:42.034Z,28.88
2022-09-28T18:54:10.241Z,18.80
2022-09-28T18:56:38.485Z,16.10
2022-09-28T18:59:11.942Z,28.17
2022-09-28T19:01:41.053Z,19.25
2022-09-28T19:04:11.011Z,18.20
2022-09-28T19:06:40.873Z,15.57
2022-09-28T19:09:09.501Z,18.83
2022-09-28T19:11:37.988Z,13.20
2022-09-28T19:14:06.208Z,14.38
2022-09-28T19:16:34.316Z,14.05
2022-09-28T19:19:02.673Z,8.65
2022-09-28T19:21:30.991Z,22.52
2022-09-28T19:24:03.136Z,16.65
2022-09-28T19:29:00.112Z,10.13
2022-09-28T19:31:28.913Z,9.45
2022-09-28T19:33:57.472Z,10.98
2022-09-28T19:36:26.995Z,11.40
2022-09-28T19:38:56.942Z,14.57
2022-09-28T19:41:27.720Z,13.63
2022-09-28T19:43:55.859Z,17.83
2022-09-28T19:46:24.179Z,18.00
2022-09-28T19:48:52.510Z,27.10
2022-09-28T19:51:20.686Z,54.47
2022-09-28T19:53:48.795Z,48.03
2022-09-28T19:56:17.097Z,50.45
2022-09-28T19:58:45.270Z,38.47
2022-09-28T20:01:13.739Z,13.73
2022-09-28T20:03:42.006Z,12.80
2022-09-28T20:06:13.824Z,10.52
2022-09-28T20:08:44.893Z,13.73
2022-09-28T20:11:13.007Z,10.82
2022-09-28T20:13:41.173Z,9.98
2022-09-28T20:16:11.963Z,14.63
2022-09-28T20:18:42.115Z,16.30
2022-09-28T20:21:15.941Z,15.88
2022-09-28T20:23:46.665Z,16.35
2022-09-28T20:26:16.182Z,8.52
2022-09-28T20:28:44.624Z,5.82
2022-09-28T20:31:17.306Z,11.05
2022-09-28T20:33:45.691Z,12.38
2022-09-28T20:36:19.766Z,24.55
2022-09-28T20:38:49.755Z,13.70
2022-09-28T20:42:22.458Z,18.33
2022-09-28T20:44:50.877Z,13.82
2022-09-28T20:47:19.309Z,13.80
2022-09-28T20:49:47.533Z,49.85
2022-09-28T20:52:15.905Z,67.10
2022-09-28T20:54:44.088Z,24.52
2022-09-28T20:57:12.351Z,38.13
2022-09-28T20:59:40.555Z,40.85
2022-09-28T21:02:11.999Z,60.17
2022-09-28T21:04:40.226Z,115.38
2022-09-28T21:07:09.379Z,164.82
2022-09-28T21:09:40.705Z,71.25
2022-09-28T21:12:08.849Z,59.07
2022-09-28T21:14:37.001Z,157.18
2022-09-28T21:17:05.204Z,45.30
2022-09-28T21:19:34.738Z,57.15
2022-09-28T21:22:03.011Z,57.30
2022-09-28T21:24:31.156Z,64.05
2022-09-28T21:26:59.291Z,32.85
2022-09-28T21:29:27.702Z,55.92
2022-09-28T21:31:55.798Z,40.20
2022-09-28T21:34:24.104Z,35.15
2022-09-28T21:36:52.711Z,46.17
2022-09-28T21:39:21.080Z,64.05
2022-09-28T21:41:49.540Z,47.72
2022-09-28T21:44:17.791Z,40.28
2022-09-28T21:46:46.042Z,31.50
2022-09-28T21:49:14.419Z,35.10
2022-09-28T21:51:42.725Z,54.47
2022-09-28T21:54:10.863Z,40.47
2022-09-28T21:56:39.097Z,11.60
2022-09-28T21:59:07.391Z,55.83
2022-09-28T22:01:35.704Z,14.13
2022-09-28T22:04:04.576Z,13.63
2022-09-28T22:06:32.964Z,14.23
2022-09-28T22:09:01.037Z,29.63
2022-09-28T22:11:29.821Z,15.20
2022-09-28T22:13:59.770Z,19.85
2022-09-28T22:16:30.906Z,17.15
2022-09-28T22:18:59.921Z,19.98
2022-09-28T22:21:32.916Z,8.68
2022-09-28T22:24:03.545Z,17.35
2022-09-28T22:26:33.407Z,32.15
2022-09-28T22:29:04.659Z,10.13
2022-09-28T22:31:36.311Z,32.00
2022-09-28T22:34:05.960Z,10.43
2022-09-28T22:36:34.840Z,10.65
2022-09-28T22:39:03.680Z,30.55
2022-09-28T22:41:32.463Z,15.35
2022-09-28T22:44:01.029Z,20.23
2022-09-28T22:46:30.372Z,14.98
2022-09-28T22:49:00.013Z,18.20
2022-09-28T22:51:29.780Z,30.52
2022-09-28T22:53:58.293Z,29.92
2022-09-28T22:56:26.642Z,54.80
2022-09-28T22:58:55.179Z,41.85
2022-09-28T23:01:26.558Z,28.13
2022-09-28T23:03:56.202Z,46.30
2022-09-28T23:06:26.836Z,21.90
2022-09-28T23:08:55.056Z,32.92
2022-09-28T23:11:23.499Z,26.80
2022-09-28T23:13:53.259Z,38.40
2022-09-28T23:16:22.025Z,51.67
2022-09-28T23:18:50.118Z,34.65
2022-09-28T23:21:20.355Z,38.40
2022-09-28T23:23:54.022Z,28.80
2022-09-28T23:26:26.493Z,33.90
2022-09-28T23:28:55.079Z,16.48
2022-09-28T23:31:29.072Z,36.72
2022-09-28T23:34:05.845Z,35.95
2022-09-28T23:36:34.762Z,25.67
2022-09-28T23:39:03.392Z,30.23
2022-09-28T23:41:31.707Z,39.20
2022-09-28T23:43:59.964Z,26.13
2022-09-28T23:46:28.201Z,22.48
2022-09-28T23:48:56.589Z,18.98
2022-09-28T23:51:24.808Z,26.17
2022-09-28T23:53:53.094Z,23.30
2022-09-28T23:56:21.392Z,27.38
2022-09-28T23:58:49.451Z,16.33
